Time;durP1;ratioP1;P1;durP2;ratioP2;P2;SDS_P1;SDS_P2;PMS_P1;PMS_P2;Temp;Humidity;BMP_temperature;BMP_pressure;BME280_temperature;BME280_humidity;BME280_pressure;Samples;Min_cycle;Max_cycle;Signal;HPM_P1;HPM_P2
2023/02/15 00:00:13;;;;;;;20.85;12.05;;;;;;;-0.85;66.72;97529.31;5054584;28;20080;-63
2023/02/15 00:02:50;;;;;;;21.15;12.07;;;;;;;-0.87;66.54;97536.13;5054480;28;20056;-64
2023/02/15 00:05:19;;;;;;;17.90;11.25;;;;;;;-0.98;66.64;97537.56;5054683;28;20045;-65
2023/02/15 00:07:52;;;;;;;17.85;11.52;;;;;;;-1.05;66.96;97542.53;5054478;28;20053;-63
2023/02/15 00:10:23;;;;;;;21.80;11.48;;;;;;;-1.07;66.76;97531.38;5054378;28;20045;-65
2023/02/15 00:12:54;;;;;;;;;;;;;;;-1.09;67.07;97539.88;5054759;28;20481;-64
2023/02/15 00:15:23;;;;;;;17.90;11.40;;;;;;;-1.12;67.13;97530.38;5053860;28;19928;-65
2023/02/15 00:17:51;;;;;;;21.02;11.88;;;;;;;-1.18;67.17;97530.22;5054369;28;20422;-65
2023/02/15 00:20:19;;;;;;;18.55;11.15;;;;;;;-1.29;67.81;97529.97;5054174;28;20465;-65
2023/02/15 00:22:48;;;;;;;16.80;10.80;;;;;;;-1.31;67.90;97529.06;5054414;28;20057;-63
2023/02/15 00:25:15;;;;;;;15.95;10.13;;;;;;;-1.33;68.03;97523.03;5054092;28;20045;-64
2023/02/15 00:27:43;;;;;;;26.88;12.10;;;;;;;-1.34;67.96;97524.72;5054041;28;20131;-64
2023/02/15 00:30:11;;;;;;;18.10;10.55;;;;;;;-1.40;67.94;97520.31;5054041;28;20128;-64
2023/02/15 00:32:38;;;;;;;19.95;10.65;;;;;;;-1.54;68.01;97513.94;5053871;28;20041;-64
2023/02/15 00:35:06;;;;;;;20.85;9.98;;;;;;;-1.58;68.31;97513.00;5053763;28;20080;-62
2023/02/15 00:37:34;;;;;;;20.00;11.40;;;;;;;-1.61;68.37;97512.91;5053868;28;20056;-65
2023/02/15 00:40:02;;;;;;;20.95;11.02;;;;;;;-1.68;68.53;97517.00;5053859;28;20515;-62
2023/02/15 00:42:30;;;;;;;16.42;10.57;;;;;;;-1.74;69.54;97514.31;5053771;28;20053;-64
2023/02/15 00:44:57;;;;;;;18.52;11.00;;;;;;;-1.82;70.15;97511.53;5053641;28;20045;-62
2023/02/15 00:47:25;;;;;;;18.25;11.13;;;;;;;-1.76;70.33;97503.13;5053683;28;20052;-65
2023/02/15 00:49:52;;;;;;;22.27;12.65;;;;;;;-1.72;70.42;97506.66;5053708;28;20053;-64
2023/02/15 00:52:19;;;;;;;30.92;18.73;;;;;;;-1.76;70.36;97504.81;5053631;28;20454;-62
2023/02/15 00:54:46;;;;;;;20.05;12.88;;;;;;;-1.87;70.92;97500.25;5053358;28;20558;-64
2023/02/15 00:57:15;;;;;;;19.52;12.45;;;;;;;-1.94;71.71;97504.38;5053409;28;20408;-65
2023/02/15 00:59:42;;;;;;;24.15;14.63;;;;;;;-1.87;72.70;97496.84;5053462;28;20076;-62
2023/02/15 01:02:10;;;;;;;23.15;13.35;;;;;;;-1.76;72.94;97499.69;5053418;28;20128;-65
2023/02/15 01:04:37;;;;;;;21.38;13.25;;;;;;;-1.67;72.75;97494.78;5053519;28;20056;-65
2023/02/15 01:07:04;;;;;;;17.88;12.18;;;;;;;-1.65;71.63;97503.41;5053242;28;20049;-66
2023/02/15 01:09:31;;;;;;;18.10;11.73;;;;;;;-1.65;70.49;97501.69;5053392;28;20053;-62
2023/02/15 01:11:59;;;;;;;22.27;12.90;;;;;;;-1.71;70.29;97501.56;5053312;28;20041;-63
2023/02/15 01:14:28;;;;;;;21.65;12.85;;;;;;;-1.72;71.06;97499.81;5053026;28;20056;-63
2023/02/15 01:16:56;;;;;;;20.90;12.23;;;;;;;-1.71;70.66;97500.69;5053259;28;20051;-64
2023/02/15 01:19:23;;;;;;;26.00;13.52;;;;;;;-1.69;70.70;97501.56;5053310;28;20045;-64
2023/02/15 01:21:51;;;;;;;23.67;12.70;;;;;;;-1.81;71.10;97502.13;5053103;28;20495;-62
2023/02/15 01:24:18;;;;;;;19.80;11.45;;;;;;;-1.89;71.51;97493.38;5053263;28;20418;-63
2023/02/15 01:26:46;;;;;;;24.83;12.75;;;;;;;-1.94;71.45;97501.81;5053386;28;20045;-65
2023/02/15 01:29:13;;;;;;;19.08;11.07;;;;;;;-1.93;71.24;97495.84;5053061;28;20045;-63
2023/02/15 01:31:41;;;;;;;15.88;10.70;;;;;;;-1.98;71.48;97496.56;5053027;28;20537;-65
2023/02/15 01:34:08;;;;;;;17.60;11.38;;;;;;;-2.08;71.52;97498.00;5053049;28;20045;-63
2023/02/15 01:36:36;;;;;;;18.92;11.98;;;;;;;-2.04;71.96;97503.25;5052847;28;20135;-65
2023/02/15 01:39:03;;;;;;;20.85;12.48;;;;;;;-2.03;72.44;97502.44;5052920;28;20054;-65
2023/02/15 01:41:31;;;;;;;23.23;11.93;;;;;;;-1.95;73.19;97509.47;5053813;28;20088;-65
2023/02/15 01:43:59;;;;;;;37.20;25.88;;;;;;;-1.89;73.18;97501.94;5059654;28;20052;-63
2023/02/15 01:46:31;;;;;;;21.40;14.13;;;;;;;-1.83;73.20;97503.78;5059661;28;20236;-65
2023/02/15 01:49:04;;;;;;;21.17;12.63;;;;;;;-1.71;73.81;97501.56;5059519;28;20045;-65
2023/02/15 01:51:33;;;;;;;21.92;12.93;;;;;;;-1.61;73.87;97501.78;5059533;28;20041;-64
2023/02/15 01:54:06;;;;;;;22.53;13.67;;;;;;;-1.45;73.26;97508.16;5059380;28;20483;-62
2023/02/15 01:56:38;;;;;;;17.63;11.85;;;;;;;-1.31;72.83;97503.38;5059325;28;20044;-62
2023/02/15 01:59:10;;;;;;;20.27;12.23;;;;;;;-1.17;72.59;97507.16;5059375;28;20089;-63
2023/02/15 02:01:38;;;;;;;20.17;12.02;;;;;;;-1.04;72.23;97502.31;5059564;28;20049;-62
2023/02/15 02:04:14;;;;;;;22.60;12.85;;;;;;;-0.87;71.13;97502.72;5059565;28;20083;-65
2023/02/15 02:06:42;;;;;;;23.05;12.65;;;;;;;-0.71;70.76;97506.50;5059456;28;20166;-65
2023/02/15 02:09:10;;;;;;;20.85;12.52;;;;;;;-0.55;70.18;97506.81;5059304;28;20053;-64
2023/02/15 02:11:37;;;;;;;20.15;11.30;;;;;;;-0.51;69.58;97500.94;5059549;28;20075;-64
2023/02/15 02:14:04;;;;;;;19.52;11.35;;;;;;;-0.54;69.06;97506.00;5059134;28;20499;-62
2023/02/15 02:16:41;;;;;;;16.00;10.85;;;;;;;-0.62;69.36;97510.09;5059331;28;20057;-64
2023/02/15 02:19:46;;;;;;;20.05;11.52;;;;;;;-0.64;69.56;97513.50;5059198;28;20053;-64
2023/02/15 02:22:37;;;;;;;15.07;10.18;;;;;;;-0.69;69.12;97514.25;5056358;28;20041;-65
2023/02/15 02:25:27;;;;;;;16.60;10.30;;;;;;;-0.82;68.75;97513.97;5059043;28;20077;-63
2023/02/15 02:28:04;;;;;;;12.32;7.95;;;;;;;-0.88;68.21;97518.09;5059123;28;20483;-63
2023/02/15 02:30:49;;;;;;;19.80;10.98;;;;;;;-1.01;68.32;97517.81;5059182;28;20048;-62
2023/02/15 02:33:40;;;;;;;16.17;10.75;;;;;;;-1.12;68.56;97525.25;5059123;28;20132;-63
2023/02/15 02:36:19;;;;;;;19.55;10.63;;;;;;;-1.18;69.19;97523.41;5058900;28;20501;-64
2023/02/15 02:39:07;;;;;;;19.95;11.88;;;;;;;-1.36;69.91;97520.38;5059009;28;20056;-63
2023/02/15 02:41:45;;;;;;;33.50;23.42;;;;;;;-1.32;70.23;97520.47;5059389;28;20049;-65
2023/02/15 02:44:19;;;;;;;22.70;13.80;;;;;;;-1.28;70.68;97521.44;5059020;28;20049;-65
2023/02/15 02:46:54;;;;;;;22.02;13.88;;;;;;;-1.26;70.93;97522.34;5059154;28;20045;-64
2023/02/15 02:49:32;;;;;;;24.15;13.30;;;;;;;-1.25;71.20;97518.94;5058937;28;20127;-63
2023/02/15 02:52:01;;;;;;;22.63;12.88;;;;;;;-1.21;71.35;97522.47;5058946;28;20493;-63
2023/02/15 02:54:30;;;;;;;25.15;14.27;;;;;;;-0.97;71.75;97518.75;5055328;28;20131;-65
2023/02/15 02:57:03;;;;;;;17.95;11.57;;;;;;;-0.74;70.37;97519.28;5055699;28;20052;-64
2023/02/15 02:59:34;;;;;;;19.88;12.25;;;;;;;-0.79;69.66;97515.72;5055753;28;20453;-65
2023/02/15 03:02:12;;;;;;;18.13;10.65;;;;;;;-0.71;69.15;97526.19;5055938;28;20041;-65
2023/02/15 03:04:45;;;;;;;17.02;11.15;;;;;;;-0.84;68.16;97523.31;5055571;28;20064;-63
2023/02/15 03:07:15;;;;;;;20.67;11.73;;;;;;;-0.96;68.48;97533.31;5055580;28;20052;-64
2023/02/15 03:09:47;;;;;;;14.10;8.82;;;;;;;-1.05;68.98;97539.13;5055781;28;20049;-66
2023/02/15 03:12:19;;;;;;;19.17;12.18;;;;;;;-1.18;69.17;97533.66;5055494;28;20106;-66
2023/02/15 03:14:52;;;;;;;18.80;11.70;;;;;;;-1.10;70.08;97533.00;5055168;28;20041;-64
2023/02/15 03:17:24;;;;;;;20.73;12.23;;;;;;;-1.09;70.62;97533.03;5055315;28;20136;-62
2023/02/15 03:19:57;;;;;;;25.20;13.93;;;;;;;-0.88;71.26;97536.94;5055390;28;20388;-63
2023/02/15 03:22:35;;;;;;;22.60;14.00;;;;;;;-0.66;70.78;97532.31;5055247;28;20049;-66
2023/02/15 03:25:08;;;;;;;20.95;12.63;;;;;;;-0.45;69.83;97524.19;5055477;28;20071;-64
2023/02/15 03:27:39;;;;;;;23.13;12.95;;;;;;;-0.28;69.54;97521.97;5055343;28;20045;-63
2023/02/15 03:30:08;;;;;;;21.40;12.52;;;;;;;-0.13;68.64;97525.69;5055523;28;20079;-64
2023/02/15 03:32:38;;;;;;;23.45;14.38;;;;;;;0.03;68.00;97521.72;5055195;28;20077;-65
2023/02/15 03:35:08;;;;;;;21.33;12.55;;;;;;;0.07;67.04;97522.66;5055096;28;20483;-63
2023/02/15 03:37:40;;;;;;;19.75;12.25;;;;;;;0.04;67.04;97526.03;5055032;28;20449;-64
2023/02/15 03:43:07;;;;;;;18.27;11.85;;;;;;;-0.31;64.42;97533.88;5045592;28;20057;-65
2023/02/15 03:45:37;;;;;;;18.77;11.88;;;;;;;-0.55;65.17;97538.53;5054872;28;20083;-65
2023/02/15 03:48:08;;;;;;;20.13;12.30;;;;;;;-0.52;68.44;97537.75;5054827;28;20052;-65
2023/02/15 03:53:24;;;;;;;21.70;13.65;;;;;;;-0.30;68.96;97543.38;5055057;28;19947;-64
2023/02/15 03:55:55;;;;;;;20.95;12.80;;;;;;;-0.21;68.87;97546.09;5054588;28;20044;-64
2023/02/15 04:04:18;;;;;;;20.05;12.57;;;;;;;0.21;67.52;97566.69;5050793;28;20052;-64
2023/02/15 04:06:46;;;;;;;19.08;11.65;;;;;;;0.30;66.96;97569.44;5054197;28;20095;-62
2023/02/15 04:12:01;;;;;;;21.17;12.85;;;;;;;0.45;66.44;97579.16;5045098;28;20055;-62
2023/02/15 04:17:13;;;;;;;19.23;12.30;;;;;;;0.63;66.01;97585.47;5054338;28;20186;-64
2023/02/15 04:25:13;;;;;;;22.70;13.30;;;;;;;0.69;65.27;97584.75;5054156;28;20133;-65
2023/02/15 04:27:42;;;;;;;27.33;11.70;;;;;;;0.73;65.21;97589.09;5054057;28;20060;-64
2023/02/15 04:30:13;;;;;;;19.85;11.98;;;;;;;0.77;65.21;97575.44;5053895;28;20384;-62
2023/02/15 04:32:40;;;;;;;;;;;;;;;0.78;65.07;97578.88;5054366;28;20044;-63
2023/02/15 04:35:09;;;;;;;19.35;12.90;;;;;;;0.68;65.37;97583.88;5053941;28;19928;-63
2023/02/15 04:37:37;;;;;;;18.15;12.52;;;;;;;0.74;65.14;97590.84;5053791;28;20112;-66
2023/02/15 04:40:06;;;;;;;20.00;13.00;;;;;;;0.78;65.00;97590.03;5053865;28;20521;-64
2023/02/15 04:42:34;;;;;;;22.52;12.80;;;;;;;0.75;64.79;97585.72;5053774;28;20132;-63
2023/02/15 04:45:01;;;;;;;22.20;13.25;;;;;;;0.79;64.75;97580.63;5053707;28;20099;-63
2023/02/15 04:47:28;;;;;;;20.55;11.98;;;;;;;0.77;64.71;97588.31;5053649;28;20119;-63
2023/02/15 04:49:56;;;;;;;19.42;12.63;;;;;;;0.78;65.11;97592.63;5053616;28;20129;-63
2023/02/15 04:52:24;;;;;;;21.00;11.48;;;;;;;0.85;64.58;97591.03;5053599;28;20080;-65
2023/02/15 04:54:52;;;;;;;21.48;12.27;;;;;;;0.88;64.47;97591.09;5053430;28;20106;-64
2023/02/15 04:57:20;;;;;;;22.33;12.80;;;;;;;0.83;64.79;97597.84;5053399;28;20052;-65
2023/02/15 04:59:47;;;;;;;18.38;11.52;;;;;;;0.83;64.83;97598.75;5053488;28;20048;-62
2023/02/15 05:02:14;;;;;;;22.95;12.82;;;;;;;0.85;64.89;97606.50;5053948;28;20102;-63
2023/02/15 05:04:41;;;;;;;24.42;13.25;;;;;;;0.88;64.88;97602.25;5053359;28;20098;-65
2023/02/15 05:07:08;;;;;;;26.55;13.10;;;;;;;0.84;65.00;97608.19;5053375;28;20063;-63
2023/02/15 05:09:35;;;;;;;21.65;12.82;;;;;;;0.85;64.74;97606.50;5053279;28;20487;-63
2023/02/15 05:12:05;;;;;;;22.65;13.82;;;;;;;0.86;64.78;97609.09;5053252;28;20068;-63
2023/02/15 05:14:32;;;;;;;20.27;12.80;;;;;;;0.87;64.51;97615.97;5053123;28;20095;-62
2023/02/15 05:17:02;;;;;;;23.50;13.45;;;;;;;0.89;64.41;97618.59;5052543;28;20099;-65
2023/02/15 05:19:31;;;;;;;22.88;12.95;;;;;;;0.92;64.49;97628.06;5053242;28;20049;-62
2023/02/15 05:21:58;;;;;;;17.27;11.50;;;;;;;0.97;64.22;97627.31;5053151;28;20052;-65
2023/02/15 05:29:57;;;;;;;22.00;12.45;;;;;;;0.38;61.85;97651.97;5053174;28;20513;-65
2023/02/15 05:32:25;;;;;;;23.88;14.50;;;;;;;0.26;62.02;97660.31;5053038;28;20063;-64
2023/02/15 05:34:53;;;;;;;25.02;13.45;;;;;;;0.18;61.89;97659.28;5053052;28;20045;-64
2023/02/15 05:37:20;;;;;;;21.45;13.32;;;;;;;0.10;62.08;97661.69;5052975;28;20085;-64
2023/02/15 05:39:48;;;;;;;30.20;15.73;;;;;;;0.03;62.29;97662.41;5052951;28;20143;-64
2023/02/15 05:42:16;;;;;;;28.67;15.02;;;;;;;-0.02;62.45;97663.16;5052841;28;20488;-63
2023/02/15 05:44:44;;;;;;;28.52;14.57;;;;;;;-0.06;62.73;97668.22;5052823;28;20088;-63
2023/02/15 05:47:11;;;;;;;24.27;13.85;;;;;;;-0.08;62.98;97672.44;5052911;28;20487;-62
2023/02/15 05:49:39;;;;;;;24.95;14.13;;;;;;;-0.06;63.00;97671.63;5052876;28;20091;-64
2023/02/15 05:52:11;;;;;;;26.58;13.93;;;;;;;-0.06;63.18;97674.22;5052869;28;20045;-64
2023/02/15 05:54:39;;;;;;;24.33;13.60;;;;;;;0.15;63.28;97677.25;5052818;28;20073;-64
2023/02/15 05:57:06;;;;;;;24.55;13.23;;;;;;;0.85;62.10;97676.06;5052684;28;20049;-61
2023/02/15 05:59:36;;;;;;;24.23;12.18;;;;;;;1.37;60.36;97685.56;5052675;28;20048;-66
2023/02/15 06:02:06;;;;;;;18.90;10.23;;;;;;;2.09;58.58;97684.97;5052711;28;20053;-64
2023/02/15 06:04:33;;;;;;;16.48;9.98;;;;;;;3.02;56.17;97689.53;5052696;28;20454;-65
2023/02/15 06:07:00;;;;;;;18.33;10.27;;;;;;;3.97;53.04;97692.94;5052779;28;20124;-62
2023/02/15 06:09:28;;;;;;;16.35;11.45;;;;;;;4.21;51.44;97687.91;5052670;28;20147;-65
2023/02/15 06:11:55;;;;;;;15.93;10.48;;;;;;;3.96;51.63;97698.09;5052772;28;20052;-65
2023/02/15 06:14:25;;;;;;;20.65;10.55;;;;;;;3.59;52.04;97701.28;5052429;28;20049;-62
2023/02/15 06:16:53;;;;;;;16.30;10.93;;;;;;;3.46;53.32;97705.47;5052466;28;20053;-65
2023/02/15 06:19:22;;;;;;;15.00;10.38;;;;;;;3.41;53.30;97705.44;5052534;28;20048;-65
2023/02/15 06:21:49;;;;;;;15.80;9.75;;;;;;;3.21;53.63;97706.09;5052541;28;20045;-65
2023/02/15 06:24:17;;;;;;;15.45;10.75;;;;;;;3.00;54.30;97707.63;5052536;28;20045;-63
2023/02/15 06:26:45;;;;;;;20.25;12.48;;;;;;;2.87;55.76;97708.34;5052554;28;20056;-62
2023/02/15 06:29:12;;;;;;;17.02;10.65;;;;;;;2.93;55.53;97704.94;5054975;28;20049;-65
2023/02/15 06:31:39;;;;;;;15.50;10.05;;;;;;;2.93;55.97;97704.94;5056240;28;20459;-64
2023/02/15 06:34:09;;;;;;;19.88;9.57;;;;;;;3.70;54.83;97706.56;5056264;28;20548;-64
2023/02/15 06:36:36;;;;;;;12.45;8.70;;;;;;;3.91;53.15;97709.28;5056031;28;20049;-64
2023/02/15 06:39:04;;;;;;;16.75;9.25;;;;;;;3.81;53.56;97706.63;5056266;28;20061;-62
2023/02/15 06:41:31;;;;;;;13.07;9.00;;;;;;;4.06;53.31;97706.81;5055981;28;20088;-65
2023/02/15 06:43:59;;;;;;;13.60;8.95;;;;;;;4.42;52.59;97710.47;5056096;28;20076;-63
2023/02/15 06:46:26;;;;;;;12.77;9.43;;;;;;;4.77;51.30;97712.38;5055978;28;20060;-64
2023/02/15 06:48:53;;;;;;;13.43;9.00;;;;;;;4.88;51.33;97712.41;5055929;28;20095;-65
2023/02/15 06:51:22;;;;;;;14.90;9.70;;;;;;;5.06;51.63;97709.00;5056112;28;20056;-66
2023/02/15 06:53:49;;;;;;;15.20;8.85;;;;;;;5.10;51.06;97709.88;5055756;28;20128;-63
2023/02/15 06:56:16;;;;;;;14.70;9.43;;;;;;;5.10;50.76;97709.88;5055918;28;20049;-63
2023/02/15 06:58:45;;;;;;;15.25;9.93;;;;;;;4.95;51.05;97708.13;5055705;28;20044;-65
2023/02/15 07:01:13;;;;;;;13.35;9.63;;;;;;;4.82;52.28;97707.22;5055674;28;20099;-63
2023/02/15 07:03:40;;;;;;;12.43;9.68;;;;;;;4.69;52.95;97706.28;5055743;28;20041;-65
2023/02/15 07:06:08;;;;;;;13.10;9.40;;;;;;;4.44;54.35;97708.75;5055630;28;20045;-62
2023/02/15 07:08:37;;;;;;;13.52;9.15;;;;;;;4.20;55.44;97714.66;5055824;28;20552;-64
2023/02/15 07:13:50;;;;;;;15.48;10.07;;;;;;;3.81;56.09;97714.38;5055493;28;20056;-66
2023/02/15 07:16:17;;;;;;;15.90;11.60;;;;;;;3.71;56.84;97716.91;5055250;28;20071;-63
2023/02/15 07:18:44;;;;;;;17.40;12.13;;;;;;;3.59;57.32;97717.69;5055344;28;20053;-64
2023/02/15 07:21:11;;;;;;;14.60;10.35;;;;;;;3.53;58.37;97721.06;5055607;28;20084;-63
2023/02/15 07:23:41;;;;;;;15.63;10.25;;;;;;;3.50;59.19;97708.13;5055680;28;20091;-66
2023/02/15 07:26:09;;;;;;;19.13;11.50;;;;;;;3.51;59.11;97717.59;5055386;28;20045;-63
2023/02/15 07:28:37;;;;;;;16.83;11.85;;;;;;;3.41;59.21;97710.63;5055227;28;20045;-64
2023/02/15 07:31:05;;;;;;;23.52;13.60;;;;;;;3.40;58.57;97716.63;5055182;28;20450;-64
2023/02/15 07:33:34;;;;;;;19.95;13.55;;;;;;;3.36;58.11;97709.69;5055239;28;20103;-63
2023/02/15 07:36:03;;;;;;;21.65;15.23;;;;;;;3.28;59.13;97707.91;5055368;28;20068;-64
2023/02/15 07:38:33;;;;;;;22.10;13.80;;;;;;;3.36;60.03;97707.97;5055012;28;20045;-65
2023/02/15 07:41:04;;;;;;;27.67;17.15;;;;;;;3.46;59.24;97714.09;5054351;28;20073;-65
2023/02/15 07:43:33;;;;;;;25.10;16.05;;;;;;;3.53;59.05;97710.72;5054984;28;20099;-66
2023/02/15 07:46:01;;;;;;;20.05;13.43;;;;;;;3.59;58.97;97714.22;5055010;28;20087;-65
2023/02/15 07:48:29;;;;;;;20.55;13.40;;;;;;;3.68;58.15;97719.47;5054739;28;20048;-66
2023/02/15 07:51:00;;;;;;;107.47;43.50;;;;;;;3.82;57.63;97716.97;5054728;28;20581;-64
2023/02/15 07:53:28;;;;;;;26.52;16.65;;;;;;;4.90;56.78;97715.88;5054740;28;20483;-66
2023/02/15 07:55:55;;;;;;;22.25;13.52;;;;;;;6.13;53.38;97715.16;5054750;28;20074;-63
2023/02/15 07:58:50;;;;;;;26.25;16.52;;;;;;;8.09;48.50;97717.63;5054578;28;20509;-62
2023/02/15 08:01:12;;;;;;;18.08;12.32;;;;;;;10.05;43.37;97716.84;5054393;28;20132;-65
2023/02/15 08:03:40;;;;;;;16.10;11.00;;;;;;;10.86;40.64;97710.16;5054490;28;20049;-64
2023/02/15 08:06:09;;;;;;;14.93;10.85;;;;;;;11.49;40.41;97712.31;5054443;28;20045;-64
2023/02/15 08:08:37;;;;;;;14.40;10.80;;;;;;;11.17;38.69;97711.25;5054537;28;20048;-66
2023/02/15 08:13:55;;;;;;;16.35;11.75;;;;;;;12.24;37.34;97715.78;5054145;28;20568;-65
2023/02/15 08:16:27;;;;;;;15.68;11.02;;;;;;;13.00;35.06;97712.84;5054296;28;20048;-63
2023/02/15 08:18:55;;;;;;;15.65;11.30;;;;;;;12.97;35.31;97712.94;5054270;28;20095;-65
2023/02/15 08:21:23;;;;;;;14.00;11.32;;;;;;;13.39;34.00;97714.31;5054461;28;20045;-64
2023/02/15 08:23:50;;;;;;;16.00;10.85;;;;;;;13.92;33.30;97719.72;5054248;28;20132;-65
2023/02/15 08:26:18;;;;;;;14.75;11.60;;;;;;;13.84;33.25;97714.72;5054207;28;20136;-64
2023/02/15 08:28:46;;;;;;;13.63;10.27;;;;;;;13.43;34.23;97712.47;5054107;28;20049;-66
2023/02/15 08:31:14;;;;;;;13.13;9.98;;;;;;;12.99;34.59;97712.88;5053909;28;20102;-66
2023/02/15 08:33:43;;;;;;;14.55;10.70;;;;;;;12.59;34.52;97718.38;5053986;28;20479;-63
2023/02/15 08:36:13;;;;;;;16.08;11.75;;;;;;;12.24;35.23;97720.16;5054042;28;20135;-64
2023/02/15 08:38:40;;;;;;;16.10;11.38;;;;;;;11.86;35.89;97717.59;5053809;28;20052;-66
2023/02/15 08:41:16;;;;;;;14.40;11.02;;;;;;;11.57;36.33;97716.50;5053926;28;20045;-66
2023/02/15 08:43:44;;;;;;;15.77;11.57;;;;;;;11.32;36.93;97724.94;5053699;28;20045;-67
2023/02/15 08:46:12;;;;;;;16.90;12.55;;;;;;;10.68;38.04;97710.53;5053646;28;20479;-68
2023/02/15 08:48:44;;;;;;;16.02;11.50;;;;;;;10.35;39.76;97718.94;5053897;28;20556;-66
2023/02/15 08:51:14;;;;;;;16.42;12.20;;;;;;;10.07;40.36;97719.44;5053107;28;20403;-64
2023/02/15 08:53:43;;;;;;;16.98;13.38;;;;;;;9.76;40.70;97718.22;5053625;28;20053;-63
2023/02/15 08:56:12;;;;;;;15.30;11.43;;;;;;;9.70;40.69;97713.94;5053673;28;20519;-66
2023/02/15 08:58:40;;;;;;;16.55;11.93;;;;;;;9.75;39.54;97713.84;5053450;28;20064;-66
2023/02/15 09:01:11;;;;;;;13.32;10.48;;;;;;;9.65;40.51;97718.38;5053490;28;20118;-66
2023/02/15 09:03:39;;;;;;;16.92;13.02;;;;;;;9.69;40.32;97720.06;5053752;28;20048;-67
2023/02/15 09:06:07;;;;;;;14.40;10.23;;;;;;;9.85;39.57;97717.19;5053257;28;20041;-64
2023/02/15 09:08:35;;;;;;;14.15;10.68;;;;;;;9.84;38.97;97710.22;5053291;28;20131;-65
2023/02/15 09:11:07;;;;;;;14.70;10.95;;;;;;;9.61;39.69;97704.47;5053562;28;20051;-66
2023/02/15 09:13:35;;;;;;;14.10;10.25;;;;;;;9.44;40.23;97712.59;5053008;28;20044;-65
2023/02/15 09:16:03;;;;;;;16.23;11.00;;;;;;;9.48;40.47;97706.44;5053301;28;20103;-65
2023/02/15 09:18:33;;;;;;;13.02;9.35;;;;;;;9.39;40.42;97698.72;5053182;28;20056;-66
2023/02/15 09:21:07;;;;;;;14.60;10.77;;;;;;;9.63;40.73;97706.22;5053240;28;20048;-66
2023/02/15 09:23:35;;;;;;;17.38;10.40;;;;;;;9.50;41.06;97705.53;5053245;28;20144;-66
2023/02/15 09:26:07;;;;;;;15.63;10.98;;;;;;;9.56;39.85;97710.66;5053080;28;20060;-66
2023/02/15 09:28:35;;;;;;;16.13;10.98;;;;;;;9.47;40.77;97709.06;5053118;28;20166;-64
2023/02/15 09:31:10;;;;;;;12.95;10.15;;;;;;;9.78;40.26;97711.19;5053266;28;20487;-65
2023/02/15 09:33:39;;;;;;;14.32;10.00;;;;;;;9.77;39.51;97704.25;5053086;28;20057;-64
2023/02/15 09:36:16;;;;;;;14.70;10.10;;;;;;;9.96;39.40;97703.94;5053073;28;20048;-65
2023/02/15 09:38:43;;;;;;;15.65;11.32;;;;;;;9.72;39.54;97711.28;5052941;28;20060;-67
2023/02/15 09:41:42;;;;;;;14.88;10.75;;;;;;;9.66;39.40;97706.19;5053276;28;20048;-66
2023/02/15 09:44:18;;;;;;;13.27;10.13;;;;;;;9.82;40.09;97704.19;5049810;28;20044;-66
2023/02/15 09:47:04;;;;;;;14.68;9.80;;;;;;;9.76;38.99;97705.16;5053131;28;20045;-66
2023/02/15 09:49:37;;;;;;;17.75;10.70;;;;;;;9.50;38.98;97700.31;5052914;28;20099;-64
2023/02/15 09:52:24;;;;;;;14.35;10.23;;;;;;;9.59;41.07;97698.44;5052895;28;20110;-67
2023/02/15 09:55:16;;;;;;;13.20;9.95;;;;;;;10.05;39.14;97692.50;5052830;28;20135;-67
2023/02/15 09:57:50;;;;;;;14.50;10.82;;;;;;;10.07;38.47;97686.34;5052863;28;20406;-65
2023/02/15 10:00:25;;;;;;;15.65;10.50;;;;;;;9.91;39.86;97687.47;5052726;28;20135;-66
2023/02/15 10:03:16;;;;;;;14.65;9.98;;;;;;;9.68;39.12;97693.94;5053535;28;20124;-65
2023/02/15 10:05:57;;;;;;;15.98;10.25;;;;;;;9.76;39.21;97680.75;5056917;28;20131;-67
2023/02/15 10:09:06;;;;;;;18.38;11.05;;;;;;;10.06;39.12;97678.50;5056723;28;20135;-66
2023/02/15 10:11:50;;;;;;;14.75;10.32;;;;;;;10.41;38.34;97670.91;5036936;28;20095;-64
2023/02/15 10:14:37;;;;;;;15.52;10.20;;;;;;;10.72;37.75;97668.56;5056490;28;20044;-65
2023/02/15 10:17:13;;;;;;;14.85;9.75;;;;;;;10.77;37.00;97663.22;5056643;28;20107;-67
2023/02/15 10:19:53;;;;;;;13.07;9.63;;;;;;;10.46;37.95;97662.13;5056517;28;20045;-65
2023/02/15 10:22:33;;;;;;;14.20;10.52;;;;;;;10.13;38.57;97663.56;5056675;28;20452;-67
2023/02/15 10:25:16;;;;;;;12.57;9.25;;;;;;;10.23;36.98;97657.28;5056599;28;20081;-67
2023/02/15 10:27:47;;;;;;;13.98;9.65;;;;;;;10.13;37.91;97660.94;5056433;28;20080;-64
2023/02/15 10:30:15;;;;;;;13.82;9.57;;;;;;;10.17;36.44;97650.41;5056369;28;20049;-64
2023/02/15 10:32:58;;;;;;;12.88;9.98;;;;;;;10.09;37.76;97647.94;5056218;28;20056;-63
2023/02/15 10:35:33;;;;;;;13.35;10.00;;;;;;;10.04;37.11;97648.91;5056217;28;20052;-66
2023/02/15 10:38:24;;;;;;;11.20;8.95;;;;;;;9.77;37.31;97640.66;5056135;28;20136;-63
2023/02/15 10:41:05;;;;;;;19.38;10.25;;;;;;;9.80;38.73;97636.25;5056163;28;20469;-67
2023/02/15 10:43:52;;;;;;;13.13;9.10;;;;;;;9.67;38.09;97632.13;5056129;28;20136;-64
2023/02/15 10:46:33;;;;;;;14.10;10.20;;;;;;;9.81;38.85;97644.97;5056103;28;20483;-67
2023/02/15 10:49:09;;;;;;;;;;;;;;;9.95;38.50;97637.75;5056392;28;20095;-64
2023/02/15 10:51:48;;;;;;;13.27;9.02;;;;;;;9.88;37.02;97627.41;5055827;28;19921;-64
2023/02/15 10:54:26;;;;;;;12.13;9.82;;;;;;;9.80;37.15;97625.81;5055900;28;20143;-66
2023/02/15 10:57:04;;;;;;;11.45;8.95;;;;;;;9.65;38.57;97616.47;5055840;28;20049;-63
2023/02/15 10:59:57;;;;;;;12.13;9.07;;;;;;;9.58;38.75;97622.69;5055824;28;20052;-66
2023/02/15 11:02:36;;;;;;;14.95;8.68;;;;;;;9.71;39.37;97620.72;5055868;28;20044;-67
2023/02/15 11:05:17;;;;;;;17.70;9.60;;;;;;;9.94;38.43;97619.47;5055750;28;20052;-63
2023/02/15 11:07:45;;;;;;;;;;;;;;;9.90;38.17;97621.25;5056155;28;20068;-63
2023/02/15 11:10:28;;;;;;;13.73;8.70;;;;;;;9.81;37.21;97617.06;5055673;28;19975;-66
2023/02/15 11:12:59;;;;;;;13.23;9.63;;;;;;;9.56;37.14;97609.66;5055582;28;20097;-65
2023/02/15 11:15:30;;;;;;;;;;;;;;;9.37;37.99;97616.94;5054715;28;20056;-64
2023/02/15 11:18:01;;;;;;;11.20;9.00;;;;;;;9.55;38.58;97614.91;5055454;28;20358;-63
2023/02/15 11:20:33;;;;;;;12.70;9.57;;;;;;;9.77;38.60;97610.19;5055276;28;20056;-66
2023/02/15 11:23:01;;;;;;;;;;;;;;;9.76;36.53;97604.97;5056020;28;20049;-64
2023/02/15 11:25:32;;;;;;;9.67;6.97;;;;;;;9.79;35.31;97610.16;5055395;28;20035;-66
2023/02/15 11:28:04;;;;;;;9.75;6.90;;;;;;;9.82;34.99;97616.16;5055310;28;20449;-68
2023/02/15 11:30:44;;;;;;;8.82;6.70;;;;;;;9.83;35.67;97611.81;5055280;28;20183;-65
2023/02/15 11:33:18;;;;;;;15.23;7.03;;;;;;;9.75;36.10;97613.72;5055253;28;20080;-63
2023/02/15 11:35:51;;;;;;;8.23;6.53;;;;;;;9.82;35.92;97616.16;5055092;28;20099;-66
2023/02/15 11:38:22;;;;;;;11.38;6.82;;;;;;;9.94;35.45;97604.63;5055315;28;20060;-67
2023/02/15 11:40:56;;;;;;;11.98;8.05;;;;;;;10.06;36.09;97602.69;5055027;28;20099;-65
2023/02/15 11:43:32;;;;;;;10.32;7.03;;;;;;;10.00;34.82;97595.84;5055085;28;20048;-64
2023/02/15 11:45:59;;;;;;;11.05;7.45;;;;;;;9.90;35.14;97589.91;5054909;28;20055;-64
2023/02/15 11:48:28;;;;;;;8.82;6.78;;;;;;;10.02;36.02;97591.44;5054969;28;20048;-65
2023/02/15 11:50:55;;;;;;;7.30;5.85;;;;;;;10.11;35.06;97583.41;5054787;28;20049;-63
2023/02/15 11:53:27;;;;;;;11.80;7.07;;;;;;;9.98;34.68;97577.56;5054807;28;20045;-64
2023/02/15 11:55:55;;;;;;;7.55;6.22;;;;;;;9.70;35.45;97577.22;5054931;28;20053;-64
2023/02/15 11:58:31;;;;;;;10.35;6.53;;;;;;;9.60;36.28;97585.19;5054562;28;20096;-67
2023/02/15 12:01:03;;;;;;;9.13;6.47;;;;;;;9.58;36.45;97580.91;5054742;28;20098;-65
2023/02/15 12:03:46;;;;;;;8.77;6.70;;;;;;;9.29;36.20;97587.47;5054667;28;20048;-65
2023/02/15 12:06:21;;;;;;;11.27;7.18;;;;;;;9.37;36.50;97564.72;5054509;28;20073;-67
2023/02/15 12:08:56;;;;;;;8.88;6.53;;;;;;;9.39;37.22;97567.31;5054583;28;20155;-66
2023/02/15 12:11:30;;;;;;;11.27;7.82;;;;;;;9.50;36.59;97552.28;5054438;28;20080;-67
2023/02/15 12:14:01;;;;;;;9.82;6.97;;;;;;;9.59;36.95;97559.97;5054288;28;20147;-64
2023/02/15 12:16:33;;;;;;;10.23;7.22;;;;;;;9.73;37.20;97567.56;5054590;28;20053;-62